Flight Track Log - Related Links

Times and Time Zones

All times are in EDT time to prevent confusion due to time zone crossing. See the N201FR flight status page for this flight to view local times or setup timezone preferences in your user account.

Time Position Orientation Groundspeed Altitude Reporting Facility
EDT Latitude Longitude Course Direction KTS MPH feet Rate Location/Type
Wed 02:20:34 PM 36.0758 -115.1764 62° Northeast 197 227 3,100  Level Los Angeles Center
Wed 02:21:23 PM 36.0775 -115.2342 272° West 197 227 4,100 1,636 Climbing Los Angeles Center
Wed 02:22:24 PM 36.1142 -115.2942 307° West 258 297 6,100 1,933 Climbing Los Angeles Center
Wed 02:23:52 PM 36.1681 -115.2222 47° Northeast 266 306 8,900 1,880 Climbing Los Angeles Center
Wed 02:24:54 PM 36.1558 -115.1317 99° East 266 306 10,800 1,548 Climbing Los Angeles Center
Wed 02:25:56 PM 36.1628 -114.9994 86° East 323 372 12,100 1,597 Climbing Los Angeles Center
Wed 02:26:00 PM 36.3901 -114.4152 62° Northeast  Level Estimated
Wed 02:26:58 PM 36.1678 -114.8781 87° East 351 404 14,100  Level Los Angeles Center
Wed 02:28:00 PM 36.1731 -114.7522 87° East 363 418 16,100 1,790 Climbing Los Angeles Center
Wed 02:29:02 PM 36.1786 -114.6250 87° East 370 426 17,800 1,597 Climbing Los Angeles Center
Wed 02:30:04 PM 36.1836 -114.4939 87° East 379 436 19,400 1,306 Climbing Los Angeles Center
Wed 02:31:06 PM 36.1881 -114.3867 87° East 387 445 20,500 1,500 Climbing Los Angeles Center
Wed 02:32:08 PM 36.1981 -114.1925 86° East 404 465 22,500 1,536 Climbing Los Angeles Center
Wed 02:33:11 PM 36.2164 -114.0539 81° East 407 468 23,700 1,104 Climbing Los Angeles Center
Wed 02:34:13 PM 36.2328 -113.9111 82° East 416 479 24,800 871 Climbing Los Angeles Center
Wed 02:35:15 PM 36.2500 -113.7644 82° East 427 491 25,500 726 Climbing Los Angeles Center
Wed 02:36:17 PM 36.2681 -113.6108 82° East 446 513 26,300 732 Climbing Los Angeles Center
Wed 02:37:18 PM 36.2900 -113.4900 77° East 450 518 27,000 823 Climbing Los Angeles Center
Wed 02:38:21 PM 36.3717 -113.2900 63° Northeast 461 531 28,000 864 Climbing Los Angeles Center
Wed 02:39:23 PM 36.4317 -113.1419 63° Northeast 468 539 28,800 613 Climbing Los Angeles Center
Wed 02:40:38 PM 36.5011 -112.9658 64° Northeast 475 547 29,400 701 Climbing Los Angeles Center
Wed 02:41:40 PM 36.5603 -112.8172 64° Northeast 480 552 30,400 829 Climbing Los Angeles Center
Wed 02:42:41 PM 36.6058 -112.6989 64° Northeast 478 550 31,100 774 Climbing Los Angeles Center
Wed 02:43:44 PM 36.6747 -112.5239 64° Northeast 473 544 32,000 672 Climbing Los Angeles Center
Wed 02:44:46 PM 36.7431 -112.3497 64° Northeast 470 541 32,500 581 Climbing Los Angeles Center
Wed 02:45:48 PM 36.7989 -112.2064 64° Northeast 465 535 33,200 823 Climbing Los Angeles Center
Wed 02:46:50 PM 36.8542 -112.0608 65° Northeast 466 536 34,200 919 Climbing Los Angeles Center
Wed 02:47:52 PM 36.9089 -111.9192 64° Northeast 458 527 35,100 816 Climbing Los Angeles Center
Wed 02:48:55 PM 36.9639 -111.7767 64° Northeast 457 526 35,900 720 Climbing Los Angeles Center
Wed 02:49:57 PM 37.0269 -111.6081 65° Northeast 448 516 36,600 532 Climbing Los Angeles Center
Wed 02:50:59 PM 37.0817 -111.4669 64° Northeast 451 519 37,000 194 Climbing Los Angeles Center
Wed 02:52:01 PM 37.1342 -111.3278 65° Northeast 447 514 37,000  Level Los Angeles Center
Wed 02:53:03 PM 37.1858 -111.1892 65° Northeast 442 509 37,000  Level Los Angeles Center
Wed 02:54:13 PM 37.2450 -111.0250 66° East 434 499 37,000  Level Denver Center
Wed 02:55:15 PM 37.2961 -110.8883 65° Northeast 435 501 37,000  Level Denver Center
Wed 02:56:17 PM 37.3467 -110.7519 65° Northeast 433 498 37,000  Level Denver Center
Wed 02:57:18 PM 37.3872 -110.6428 65° Northeast 432 497 37,000  Level Denver Center
Wed 02:58:21 PM 37.4581 -110.4489 65° Northeast 436 502 37,000  Level Denver Center
Wed 02:59:23 PM 37.5108 -110.3058 65° Northeast 434 499 37,000  Level Denver Center
Wed 03:00:25 PM 37.5589 -110.1728 65° Northeast 436 502 37,000 48 Level Denver Center
Wed 03:01:27 PM 37.6150 -110.0158 66° East 438 504 37,100  Climbing Denver Center
Wed 03:02:29 PM 37.6631 -109.8825 65° Northeast 435 501 37,000 -48 Descending Denver Center
Wed 03:03:31 PM 37.7114 -109.7492 65° Northeast 435 501 37,000  Level Denver Center
Wed 03:04:45 PM 37.7656 -109.5944 66° East 431 496 37,000  Level Denver Center
Wed 03:05:48 PM 37.8294 -109.4161 66° East 434 499 37,000  Level Denver Center
Wed 03:06:50 PM 37.8761 -109.2833 66° East 431 496 37,000  Level Denver Center
Wed 03:07:52 PM 37.9356 -109.1306 64° Northeast 433 498 37,000  Level Denver Center
Wed 03:08:54 PM 37.9906 -109.0033 61° Northeast 430 495 37,000  Level Denver Center
Wed 03:09:56 PM 38.0442 -108.8756 62° Northeast 429 494 37,000  Level Denver Center
Wed 03:10:58 PM 38.1033 -108.7347 62° Northeast 429 494 37,000  Level Denver Center
Wed 03:12:00 PM 38.1647 -108.5856 62° Northeast 428 493 37,000  Level Denver Center
Wed 03:13:14 PM 38.2186 -108.4581 62° Northeast 429 494 37,000  Level Denver Center
Wed 03:14:16 PM 38.2889 -108.2867 62° Northeast 429 494 37,000  Level Denver Center
Wed 03:15:18 PM 38.3503 -108.1372 62° Northeast 428 493 37,000  Level Denver Center
Wed 03:16:20 PM 38.4025 -108.0106 62° Northeast 425 489 37,000  Level Denver Center
Wed 03:17:22 PM 38.4544 -107.8822 63° Northeast 426 490 37,000  Level Denver Center
Wed 03:18:24 PM 38.5150 -107.7322 63° Northeast 426 490 37,000  Level Denver Center
Wed 03:19:26 PM 38.5672 -107.6050 62° Northeast 424 488 37,000 -290 Level Denver Center
Wed 03:20:28 PM 38.6278 -107.4544 63° Northeast 427 491 36,400 -629 Descending Denver Center
Wed 03:21:30 PM 38.6800 -107.3256 63° Northeast 428 493 35,700 -726 Descending Denver Center
Wed 03:22:32 PM 38.7403 -107.1722 63° Northeast 434 499 34,900 -726 Descending Denver Center
Wed 03:23:34 PM 38.7981 -107.0283 63° Northeast 433 498 34,200 -629 Descending Denver Center
Wed 03:24:36 PM 38.8539 -106.8858 63° Northeast 438 504 33,600 -629 Descending Denver Center
Wed 03:25:38 PM 38.9072 -106.7514 63° Northeast 442 509 32,900 -677 Descending Denver Center
Wed 03:26:40 PM 38.9686 -106.5933 63° Northeast 444 511 32,200 -677 Descending Denver Center
Wed 03:27:42 PM 39.0231 -106.4553 63° Northeast 450 518 31,500 -581 Descending Denver Center
Wed 03:28:44 PM 39.0858 -106.2931 63° Northeast 455 524 31,000 -290 Descending Denver Center
Wed 03:29:46 PM 39.1378 -106.1547 64° Northeast 461 531 30,900 -1,597 Descending Denver Center
Wed 03:30:48 PM 39.1967 -106.0042 63° Northeast 469 540 27,700 -2,806 Descending Denver Center
Wed 03:31:50 PM 39.2519 -105.8586 64° Northeast 456 525 25,100 -2,613 Descending Denver Center
Wed 03:32:52 PM 39.3158 -105.6925 64° Northeast 433 498 22,300 -1,790 Descending Denver Center
Wed 03:33:54 PM 39.3639 -105.5656 64° Northeast 398 458 21,400 -1,094 Descending Denver Center
Wed 03:35:53 PM 39.4667 -105.3500 58° Northeast 334 384 19,000 -1,283 Descending Denver TRACON
Wed 03:36:47 PM 39.5167 -105.2667 52° Northeast 332 382 17,700 -1,200 Descending Denver TRACON
Wed 03:37:53 PM 39.5667 -105.1667 57° Northeast 327 376 16,600 -1,048 Descending Denver TRACON
Wed 03:38:53 PM 39.6167 -105.0667 57° Northeast 325 374 15,500 -1,100 Descending Denver TRACON
Wed 03:39:53 PM 39.6667 -104.9667 57° Northeast 317 365 14,400 -1,050 Descending Denver TRACON
Wed 03:40:53 PM 39.7167 -104.8667 57° Northeast 313 360 13,400 -1,200 Descending Denver TRACON
Wed 03:41:53 PM 39.7833 -104.8333 21° North 310 357 12,000 -1,200 Descending Denver TRACON
Wed 03:42:53 PM 39.8833 -104.8333 360° North 312 359 11,000 -650 Descending Denver TRACON
Wed 03:43:53 PM 39.9500 -104.8333 360° North 262 302 10,700 -800 Descending Denver TRACON
Wed 03:44:53 PM 40.0167 -104.8333 360° North 256 295 9,400 -1,100 Descending Denver TRACON
Wed 03:45:53 PM 40.0833 -104.8333 360° North 253 291 8,500 -673 Descending Denver TRACON
Wed 03:46:31 PM 40.1008 -104.7967 58° Northeast 245 282 8,300 -535 Descending Denver Center
Wed 03:47:34 PM 40.0422 -104.7325 140° Southeast 241 277 7,600 -720 Descending Denver Center
Wed 03:48:36 PM 39.9800 -104.6958 156° South 223 257 6,800 -774 Descending Denver Center
Wed 03:49:38 PM 39.9272 -104.6958 180° South 190 219 6,000 -726 Descending Denver Center
Wed 03:50:40 PM 39.8881 -104.6964 181° South 158 182 5,300 -677 Descending Denver Center
Wed 03:52:00 PM 39.8617 -104.6732 162° South  Level Estimated
Wed 03:59:00 PM 39.8617 -104.6732 162° South  Level Estimated
Wed 04:00:00 PM 39.8617 -104.6732 162° South  Level Estimated

Login

Don't have an account? Register now (free) for customized features, flight alerts, and more!